Time,TemperatureF,DewpointF,PressureIn,WindDirection,WindDirectionDegrees,WindSpeedMPH,WindSpeedGustMPH,Humidity,HourlyPrecipIn,Conditions,Clouds,dailyrainin,SolarRadiationWatts/m^2,SoftwareType,DateUTC
2013-04-30 00:01:00,54.1,47.0,29.84,WNW,301,1.0,10.0,78,0.00,,,0.00,0,weatherlink.com 1.10,2013-04-30 07:01:00,
2013-04-30 00:16:00,54.2,47.0,29.84,WNW,285,3.0,7.0,77,0.00,,,0.00,0,weatherlink.com 1.10,2013-04-30 07:16:00,
2013-04-30 00:31:00,53.7,47.0,29.84,WNW,282,5.0,7.0,78,0.00,,,0.00,0,weatherlink.com 1.10,2013-04-30 07:31:00,
2013-04-30 00:46:00,53.5,47.0,29.84,WSW,252,7.0,9.0,78,0.00,,,0.00,0,weatherlink.com 1.10,2013-04-30 07:46:00,
2013-04-30 01:01:00,53.0,47.0,29.84,WNW,291,1.0,8.0,80,0.00,,,0.00,0,weatherlink.com 1.10,2013-04-30 08:01:00,
2013-04-30 01:16:00,52.6,47.0,29.83,WSW,248,4.0,7.0,80,0.00,,,0.00,0,weatherlink.com 1.10,2013-04-30 08:16:00,
2013-04-30 01:31:00,53.0,47.0,29.83,West,275,0.0,4.0,80,0.00,,,0.00,0,weatherlink.com 1.10,2013-04-30 08:31:00,
2013-04-30 01:46:00,52.8,47.0,29.84,WNW,291,2.0,5.0,80,0.00,,,0.00,0,weatherlink.com 1.10,2013-04-30 08:46:00,
2013-04-30 02:02:00,52.8,47.0,29.84,West,267,2.0,7.0,80,0.00,,,0.00,0,weatherlink.com 1.10,2013-04-30 09:02:00,
2013-04-30 02:17:00,52.9,47.0,29.84,WSW,254,0.0,6.0,80,0.00,,,0.00,0,weatherlink.com 1.10,2013-04-30 09:17:00,
2013-04-30 02:32:00,52.9,47.0,29.84,WSW,249,0.0,5.0,80,0.00,,,0.00,0,weatherlink.com 1.10,2013-04-30 09:32:00,
2013-04-30 02:47:00,52.9,47.0,29.83,NNW,347,0.0,3.0,80,0.00,,,0.00,0,weatherlink.com 1.10,2013-04-30 09:47:00,
2013-04-30 03:02:00,53.0,47.0,29.84,West,279,2.0,4.0,79,0.00,,,0.00,0,weatherlink.com 1.10,2013-04-30 10:02:00,
2013-04-30 03:17:00,53.2,47.0,29.84,WNW,283,1.0,5.0,78,0.00,,,0.00,0,weatherlink.com 1.10,2013-04-30 10:17:00,
2013-04-30 03:32:00,52.8,46.0,29.83,WNW,282,0.0,4.0,79,0.00,,,0.00,0,weatherlink.com 1.10,2013-04-30 10:32:00,
2013-04-30 03:47:00,53.0,47.0,29.84,WNW,286,0.0,4.0,79,0.00,,,0.00,0,weatherlink.com 1.10,2013-04-30 10:47:00,
2013-04-30 04:02:00,53.0,46.0,29.84,WNW,297,0.0,3.0,78,0.00,,,0.00,0,weatherlink.com 1.10,2013-04-30 11:02:00,
2013-04-30 04:17:00,53.1,46.0,29.84,WNW,297,0.0,1.0,78,0.00,,,0.00,0,weatherlink.com 1.10,2013-04-30 11:17:00,
2013-04-30 04:32:00,53.2,47.0,29.83,WNW,297,0.0,1.0,78,0.00,,,0.00,0,weatherlink.com 1.10,2013-04-30 11:32:00,
2013-04-30 04:47:00,53.4,47.0,29.84,WNW,297,0.0,1.0,78,0.00,,,0.00,0,weatherlink.com 1.10,2013-04-30 11:47:00,
2013-04-30 05:02:00,53.6,47.0,29.84,WNW,297,0.0,0.0,77,0.00,,,0.00,0,weatherlink.com 1.10,2013-04-30 12:02:00,
2013-04-30 05:17:00,53.7,47.0,29.84,WNW,297,0.0,1.0,77,0.00,,,0.00,0,weatherlink.com 1.10,2013-04-30 12:17:00,
2013-04-30 05:32:00,53.2,46.0,29.84,WNW,297,0.0,1.0,77,0.00,,,0.00,0,weatherlink.com 1.10,2013-04-30 12:32:00,
2013-04-30 05:47:00,53.0,46.0,29.83,SW,214,0.0,3.0,78,0.00,,,0.00,0,weatherlink.com 1.10,2013-04-30 12:47:00,
2013-04-30 06:02:00,53.1,46.0,29.84,SW,222,0.0,2.0,78,0.00,,,0.00,0,weatherlink.com 1.10,2013-04-30 13:02:00,
2013-04-30 06:17:00,53.1,46.0,29.85,WSW,252,0.0,5.0,78,0.00,,,0.00,5,weatherlink.com 1.10,2013-04-30 13:17:00,
2013-04-30 06:32:00,52.9,46.0,29.86,WNW,301,2.0,4.0,78,0.00,,,0.00,16,weatherlink.com 1.10,2013-04-30 13:32:00,
2013-04-30 06:47:00,52.9,47.0,29.86,NNW,337,0.0,4.0,79,0.00,,,0.00,37,weatherlink.com 1.10,2013-04-30 13:47:00,
2013-04-30 07:02:00,53.2,47.0,29.86,WSW,246,0.0,2.0,78,0.00,,,0.00,40,weatherlink.com 1.10,2013-04-30 14:02:00,
2013-04-30 07:17:00,53.6,47.0,29.87,SSW,212,0.0,2.0,77,0.00,,,0.00,125,weatherlink.com 1.10,2013-04-30 14:17:00,
2013-04-30 07:32:00,54.3,47.0,29.87,SSW,212,0.0,1.0,77,0.00,,,0.00,100,weatherlink.com 1.10,2013-04-30 14:32:00,
2013-04-30 07:47:00,55.3,48.0,29.87,SSW,212,0.0,1.0,75,0.00,,,0.00,58,weatherlink.com 1.10,2013-04-30 14:47:00,
2013-04-30 08:02:00,56.7,48.0,29.87,SSW,212,0.0,2.0,73,0.00,,,0.00,274,weatherlink.com 1.10,2013-04-30 15:02:00,
2013-04-30 08:17:00,58.0,48.0,29.87,SSW,202,0.0,2.0,69,0.00,,,0.00,325,weatherlink.com 1.10,2013-04-30 15:17:00,
2013-04-30 08:32:00,59.5,48.0,29.88,SW,216,0.0,3.0,66,0.00,,,0.00,371,weatherlink.com 1.10,2013-04-30 15:32:00,
2013-04-30 08:47:00,60.0,49.0,29.88,SSW,204,3.0,7.0,67,0.00,,,0.00,420,weatherlink.com 1.10,2013-04-30 15:47:00,
2013-04-30 09:02:00,59.9,49.0,29.89,SW,214,3.0,6.0,67,0.00,,,0.00,473,weatherlink.com 1.10,2013-04-30 16:02:00,
2013-04-30 09:17:00,60.3,48.0,29.89,SW,229,3.0,7.0,65,0.00,,,0.00,520,weatherlink.com 1.10,2013-04-30 16:17:00,
2013-04-30 09:33:00,61.6,48.0,29.89,SW,229,0.0,6.0,62,0.00,,,0.00,571,weatherlink.com 1.10,2013-04-30 16:33:00,
2013-04-30 09:48:00,64.1,48.0,29.89,WNW,290,0.0,5.0,57,0.00,,,0.00,619,weatherlink.com 1.10,2013-04-30 16:48:00,
2013-04-30 10:03:00,65.4,48.0,29.89,North,356,1.0,6.0,54,0.00,,,0.00,664,weatherlink.com 1.10,2013-04-30 17:03:00,
2013-04-30 10:18:00,68.3,48.0,29.89,NNW,339,0.0,6.0,49,0.00,,,0.00,708,weatherlink.com 1.10,2013-04-30 17:18:00,
2013-04-30 10:33:00,65.8,49.0,29.89,West,274,5.0,9.0,54,0.00,,,0.00,698,weatherlink.com 1.10,2013-04-30 17:33:00,
2013-04-30 10:48:00,65.6,49.0,29.89,WSW,249,4.0,9.0,55,0.00,,,0.00,763,weatherlink.com 1.10,2013-04-30 17:48:00,
2013-04-30 11:03:00,66.3,48.0,29.89,NW,306,1.0,9.0,52,0.00,,,0.00,758,weatherlink.com 1.10,2013-04-30 18:03:00,
2013-04-30 11:18:00,67.9,48.0,29.89,West,275,9.0,10.0,49,0.00,,,0.00,831,weatherlink.com 1.10,2013-04-30 18:18:00,
2013-04-30 11:33:00,67.7,47.0,29.89,West,275,4.0,10.0,48,0.00,,,0.00,846,weatherlink.com 1.10,2013-04-30 18:33:00,
2013-04-30 11:48:00,67.2,47.0,29.89,WSW,258,9.0,11.0,49,0.00,,,0.00,872,weatherlink.com 1.10,2013-04-30 18:48:00,
2013-04-30 12:03:00,67.6,48.0,29.89,SW,214,3.0,11.0,50,0.00,,,0.00,891,weatherlink.com 1.10,2013-04-30 19:03:00,
2013-04-30 12:18:00,66.7,47.0,29.89,WSW,253,2.0,13.0,50,0.00,,,0.00,905,weatherlink.com 1.10,2013-04-30 19:18:00,
2013-04-30 12:33:00,67.2,47.0,29.88,WNW,289,0.0,12.0,49,0.00,,,0.00,918,weatherlink.com 1.10,2013-04-30 19:33:00,
2013-04-30 12:48:00,67.6,47.0,29.88,WSW,254,7.0,13.0,48,0.00,,,0.00,923,weatherlink.com 1.10,2013-04-30 19:48:00,
2013-04-30 13:03:00,67.0,46.0,29.88,WSW,249,12.0,14.0,48,0.00,,,0.00,928,weatherlink.com 1.10,2013-04-30 20:03:00,
2013-04-30 13:18:00,65.6,47.0,29.88,West,270,10.0,16.0,51,0.00,,,0.00,928,weatherlink.com 1.10,2013-04-30 20:18:00,
2013-04-30 13:33:00,66.0,47.0,29.88,NW,307,2.0,11.0,51,0.00,,,0.00,926,weatherlink.com 1.10,2013-04-30 20:33:00,
2013-04-30 13:48:00,65.2,47.0,29.87,WSW,252,5.0,16.0,52,0.00,,,0.00,914,weatherlink.com 1.10,2013-04-30 20:48:00,
2013-04-30 14:03:00,66.0,47.0,29.87,WSW,248,4.0,17.0,50,0.00,,,0.00,909,weatherlink.com 1.10,2013-04-30 21:03:00,
2013-04-30 14:18:00,67.2,47.0,29.87,WSW,258,4.0,12.0,48,0.00,,,0.00,895,weatherlink.com 1.10,2013-04-30 21:18:00,
2013-04-30 14:33:00,67.1,47.0,29.87,WSW,254,7.0,11.0,49,0.00,,,0.00,875,weatherlink.com 1.10,2013-04-30 21:33:00,
2013-04-30 14:48:00,65.8,46.0,29.86,SW,216,11.0,19.0,50,0.00,,,0.00,860,weatherlink.com 1.10,2013-04-30 21:48:00,
2013-04-30 15:03:00,65.6,47.0,29.86,WSW,245,7.0,19.0,51,0.00,,,0.00,830,weatherlink.com 1.10,2013-04-30 22:03:00,
2013-04-30 15:18:00,65.6,46.0,29.86,West,272,4.0,18.0,50,0.00,,,0.00,803,weatherlink.com 1.10,2013-04-30 22:18:00,
2013-04-30 15:33:00,66.2,47.0,29.85,SW,220,5.0,11.0,50,0.00,,,0.00,773,weatherlink.com 1.10,2013-04-30 22:33:00,
2013-04-30 15:48:00,65.2,46.0,29.85,West,263,9.0,16.0,51,0.00,,,0.00,740,weatherlink.com 1.10,2013-04-30 22:48:00,
2013-04-30 16:03:00,65.6,46.0,29.85,SSW,192,1.0,14.0,50,0.00,,,0.00,693,weatherlink.com 1.10,2013-04-30 23:03:00,
2013-04-30 16:18:00,65.2,46.0,29.85,WSW,241,3.0,13.0,50,0.00,,,0.00,666,weatherlink.com 1.10,2013-04-30 23:18:00,
2013-04-30 16:33:00,65.4,46.0,29.84,WNW,283,3.0,15.0,49,0.00,,,0.00,621,weatherlink.com 1.10,2013-04-30 23:33:00,
2013-04-30 16:48:00,65.4,46.0,29.84,West,278,11.0,12.0,50,0.00,,,0.00,577,weatherlink.com 1.10,2013-04-30 23:48:00,
2013-04-30 17:03:00,65.0,46.0,29.84,WSW,255,7.0,13.0,51,0.00,,,0.00,506,weatherlink.com 1.10,2013-05-01 00:03:00,
2013-04-30 17:18:00,64.9,46.0,29.84,West,279,5.0,12.0,51,0.00,,,0.00,468,weatherlink.com 1.10,2013-05-01 00:18:00,
2013-04-30 17:33:00,64.5,46.0,29.84,West,262,4.0,9.0,52,0.00,,,0.00,434,weatherlink.com 1.10,2013-05-01 00:33:00,
2013-04-30 17:48:00,64.8,47.0,29.84,SW,214,5.0,10.0,52,0.00,,,0.00,383,weatherlink.com 1.10,2013-05-01 00:48:00,
2013-04-30 18:03:00,64.6,46.0,29.84,North,349,5.0,9.0,52,0.00,,,0.00,313,weatherlink.com 1.10,2013-05-01 01:03:00,
2013-04-30 18:18:00,63.9,46.0,29.84,West,277,4.0,13.0,53,0.00,,,0.00,265,weatherlink.com 1.10,2013-05-01 01:18:00,
2013-04-30 18:33:00,64.4,46.0,29.84,West,259,6.0,7.0,52,0.00,,,0.00,220,weatherlink.com 1.10,2013-05-01 01:33:00,
2013-04-30 18:48:00,63.4,46.0,29.84,WSW,243,7.0,12.0,53,0.00,,,0.00,165,weatherlink.com 1.10,2013-05-01 01:48:00,
2013-04-30 19:03:00,62.4,45.0,29.84,NW,322,11.0,12.0,54,0.00,,,0.00,49,weatherlink.com 1.10,2013-05-01 02:03:00,
2013-04-30 19:18:00,61.4,46.0,29.84,WSW,255,8.0,11.0,57,0.00,,,0.00,33,weatherlink.com 1.10,2013-05-01 02:18:00,
2013-04-30 19:33:00,60.6,46.0,29.84,WSW,249,7.0,12.0,58,0.00,,,0.00,23,weatherlink.com 1.10,2013-05-01 02:33:00,
2013-04-30 19:48:00,60.3,45.0,29.84,NNW,329,1.0,10.0,58,0.00,,,0.00,11,weatherlink.com 1.10,2013-05-01 02:48:00,
2013-04-30 20:03:00,60.2,45.0,29.84,WSW,250,2.0,8.0,58,0.00,,,0.00,0,weatherlink.com 1.10,2013-05-01 03:03:00,
2013-04-30 20:18:00,60.0,45.0,29.85,WNW,287,2.0,7.0,59,0.00,,,0.00,0,weatherlink.com 1.10,2013-05-01 03:18:00,
2013-04-30 20:33:00,60.1,45.0,29.85,NW,319,2.0,7.0,58,0.00,,,0.00,0,weatherlink.com 1.10,2013-05-01 03:33:00,
2013-04-30 20:49:00,60.3,45.0,29.85,WSW,242,1.0,4.0,57,0.00,,,0.00,0,weatherlink.com 1.10,2013-05-01 03:49:00,
2013-04-30 21:04:00,60.7,45.0,29.86,NW,310,0.0,3.0,57,0.00,,,0.00,0,weatherlink.com 1.10,2013-05-01 04:04:00,
2013-04-30 21:19:00,61.0,45.0,29.86,NW,320,1.0,3.0,56,0.00,,,0.00,0,weatherlink.com 1.10,2013-05-01 04:19:00,
2013-04-30 21:34:00,62.0,45.0,29.87,NW,315,0.0,3.0,55,0.00,,,0.00,0,weatherlink.com 1.10,2013-05-01 04:34:00,
2013-04-30 21:49:00,62.3,47.0,29.87,WNW,295,1.0,4.0,57,0.00,,,0.00,0,weatherlink.com 1.10,2013-05-01 04:49:00,
2013-04-30 22:04:00,62.3,47.0,29.87,WNW,301,1.0,3.0,57,0.00,,,0.00,0,weatherlink.com 1.10,2013-05-01 05:04:00,
2013-04-30 22:19:00,61.6,46.0,29.87,West,270,0.0,2.0,58,0.00,,,0.00,0,weatherlink.com 1.10,2013-05-01 05:19:00,
2013-04-30 22:34:00,61.7,46.0,29.88,West,270,0.0,1.0,57,0.00,,,0.00,0,weatherlink.com 1.10,2013-05-01 05:34:00,
2013-04-30 22:49:00,61.8,46.0,29.87,West,270,0.0,2.0,57,0.00,,,0.00,0,weatherlink.com 1.10,2013-05-01 05:49:00,
2013-04-30 23:04:00,61.7,46.0,29.88,West,270,1.0,2.0,56,0.00,,,0.00,0,weatherlink.com 1.10,2013-05-01 06:04:00,
2013-04-30 23:19:00,62.3,44.0,29.87,West,270,0.0,0.0,51,0.00,,,0.00,0,weatherlink.com 1.10,2013-05-01 06:19:00,
2013-04-30 23:34:00,63.5,41.0,29.87,West,270,0.0,1.0,44,0.00,,,0.00,0,weatherlink.com 1.10,2013-05-01 06:34:00,
2013-04-30 23:49:00,65.1,37.0,29.88,West,270,2.0,2.0,35,0.00,,,0.00,0,weatherlink.com 1.10,2013-05-01 06:49:00,